createdAt,value
2022-10-13T00:00:58.431Z,86.49
2022-10-13T00:03:25.468Z,84.31
2022-10-13T00:05:52.298Z,83.58
2022-10-13T00:08:21.206Z,83.40
2022-10-13T00:11:19.784Z,83.84
2022-10-13T00:13:48.196Z,83.27
2022-10-13T00:16:16.890Z,82.14
2022-10-13T00:18:43.827Z,83.08
2022-10-13T00:21:13.852Z,83.50
2022-10-13T00:23:41.426Z,83.33
2022-10-13T00:26:10.854Z,83.52
2022-10-13T00:28:38.811Z,83.65
2022-10-13T00:31:15.759Z,84.47
2022-10-13T00:33:42.702Z,85.54
2022-10-13T00:36:09.516Z,85.96
2022-10-13T00:38:36.297Z,84.89
2022-10-13T00:41:03.132Z,84.09
2022-10-13T00:43:54.825Z,85.19
2022-10-13T00:46:22.386Z,84.79
2022-10-13T00:48:59.967Z,84.13
2022-10-13T00:51:29.252Z,84.77
2022-10-13T00:53:57.028Z,85.70
2022-10-13T00:56:24.450Z,86.01
2022-10-13T00:58:52.251Z,85.32
2022-10-13T01:01:19.252Z,84.20
2022-10-13T01:03:46.002Z,83.79
2022-10-13T01:06:13.012Z,83.60
2022-10-13T01:08:39.965Z,83.99
2022-10-13T01:11:41.948Z,86.16
2022-10-13T01:14:37.483Z,87.49
2022-10-13T01:17:29.032Z,86.06
2022-10-13T01:20:08.239Z,85.22
2022-10-13T01:23:12.739Z,83.53
2022-10-13T01:25:51.538Z,84.42
2022-10-13T01:28:24.535Z,83.37
2022-10-13T01:30:59.065Z,83.92
2022-10-13T01:33:31.674Z,83.66
2022-10-13T01:36:25.938Z,83.98
2022-10-13T01:39:15.955Z,84.60
2022-10-13T01:41:46.465Z,84.53
2022-10-13T01:44:22.687Z,84.40
2022-10-13T01:46:55.473Z,86.09
2022-10-13T01:49:27.769Z,86.33
2022-10-13T01:51:55.615Z,86.70
2022-10-13T01:54:22.334Z,83.71
2022-10-13T01:56:54.206Z,86.12
2022-10-13T01:59:21.547Z,86.12
2022-10-13T02:01:48.835Z,86.10
2022-10-13T02:04:26.673Z,85.58
2022-10-13T02:07:09.543Z,86.04
2022-10-13T02:09:48.199Z,86.00
2022-10-13T02:12:24.963Z,84.96
2022-10-13T02:17:53.736Z,83.86
2022-10-13T02:20:21.302Z,84.64
2022-10-13T02:22:53.020Z,84.78
2022-10-13T02:25:19.841Z,86.54
2022-10-13T02:27:46.681Z,86.21
2022-10-13T02:30:24.380Z,84.87
2022-10-13T02:32:51.273Z,86.56
2022-10-13T02:35:18.046Z,87.79
2022-10-13T02:37:44.932Z,87.97
2022-10-13T02:40:12.198Z,87.15
2022-10-13T02:42:39.401Z,85.40
2022-10-13T02:45:06.681Z,84.77
2022-10-13T02:47:33.607Z,83.42
2022-10-13T02:50:02.557Z,83.12
2022-10-13T02:52:29.333Z,84.36
2022-10-13T02:54:56.095Z,85.24
2022-10-13T02:57:23.121Z,85.78
2022-10-13T02:59:51.738Z,85.16
2022-10-13T03:02:19.124Z,83.48
2022-10-13T03:04:48.324Z,83.13
2022-10-13T03:07:15.470Z,83.03
2022-10-13T03:09:42.326Z,82.86
2022-10-13T03:12:09.107Z,83.70
2022-10-13T03:14:36.060Z,83.68
2022-10-13T03:20:06.882Z,84.46
2022-10-13T03:22:34.126Z,84.93
2022-10-13T03:25:00.959Z,84.90
2022-10-13T03:27:28.068Z,84.63
2022-10-13T03:29:54.847Z,85.46
2022-10-13T03:32:21.975Z,86.89
2022-10-13T03:34:50.067Z,87.08
2022-10-13T03:37:17.334Z,87.27
2022-10-13T03:39:44.172Z,87.85
2022-10-13T03:42:12.169Z,87.59
2022-10-13T03:44:39.238Z,87.45
2022-10-13T03:47:06.041Z,86.88
2022-10-13T03:49:32.789Z,85.97
2022-10-13T03:51:59.486Z,85.71
2022-10-13T03:54:26.481Z,85.75
2022-10-13T03:56:53.230Z,87.78
2022-10-13T03:59:20.023Z,88.02
2022-10-13T04:01:46.863Z,86.62
2022-10-13T04:04:14.092Z,85.66
2022-10-13T04:06:41.928Z,85.74
2022-10-13T04:09:09.595Z,84.26
2022-10-13T04:11:36.405Z,84.68
2022-10-13T04:14:03.247Z,84.43
2022-10-13T04:16:31.202Z,86.04
2022-10-13T04:21:54.436Z,86.11
2022-10-13T04:24:21.435Z,86.60
2022-10-13T04:26:48.224Z,87.51
2022-10-13T04:29:14.993Z,87.75
2022-10-13T04:31:43.912Z,87.04
2022-10-13T04:34:12.210Z,84.82
2022-10-13T04:36:39.020Z,84.04
2022-10-13T04:39:06.021Z,85.36
2022-10-13T04:41:33.437Z,85.92
2022-10-13T04:44:02.581Z,86.47
2022-10-13T04:46:29.575Z,85.68
2022-10-13T04:48:57.102Z,86.12
2022-10-13T04:51:29.008Z,85.45
2022-10-13T04:53:57.507Z,84.91
2022-10-13T04:56:24.949Z,84.61
2022-10-13T04:58:51.898Z,85.53
2022-10-13T05:01:22.349Z,84.27
2022-10-13T05:03:57.511Z,83.74
2022-10-13T05:06:26.676Z,84.80
2022-10-13T05:08:56.105Z,85.48
2022-10-13T05:11:24.347Z,87.07
2022-10-13T05:13:51.257Z,87.46
2022-10-13T05:16:19.148Z,87.29
2022-10-13T05:18:45.948Z,86.65
2022-10-13T05:21:24.751Z,87.05
2022-10-13T05:23:54.367Z,87.66
2022-10-13T05:26:28.648Z,87.35
2022-10-13T05:28:56.892Z,87.25
2022-10-13T05:31:26.530Z,85.49
2022-10-13T05:33:53.366Z,85.25
2022-10-13T05:36:26.359Z,85.87
2022-10-13T05:38:53.978Z,86.19
2022-10-13T05:41:21.544Z,87.19
2022-10-13T05:43:48.607Z,87.39
2022-10-13T05:46:15.370Z,87.84
2022-10-13T05:48:42.300Z,87.64
2022-10-13T05:51:15.163Z,87.02
2022-10-13T05:53:50.243Z,86.93
2022-10-13T05:56:22.284Z,87.66
2022-10-13T05:58:53.045Z,87.94
2022-10-13T06:01:22.992Z,87.97
2022-10-13T06:03:51.143Z,87.40
2022-10-13T06:06:17.910Z,88.20
2022-10-13T06:08:44.823Z,87.57
2022-10-13T06:11:11.558Z,86.56
2022-10-13T06:13:38.278Z,85.90
2022-10-13T06:16:05.256Z,86.20
2022-10-13T06:18:32.087Z,87.06
2022-10-13T06:20:58.948Z,86.71
2022-10-13T06:23:25.857Z,87.34
2022-10-13T06:25:53.878Z,87.56
2022-10-13T06:28:21.301Z,87.25
2022-10-13T06:30:53.876Z,87.37
2022-10-13T06:33:22.689Z,87.89
2022-10-13T06:35:50.148Z,87.59
2022-10-13T06:38:17.863Z,88.06
2022-10-13T06:40:48.347Z,86.62
2022-10-13T06:43:15.142Z,86.45
2022-10-13T06:45:41.908Z,86.01
2022-10-13T06:48:08.803Z,86.23
2022-10-13T06:50:39.422Z,86.82
2022-10-13T06:56:12.024Z,87.03
2022-10-13T06:58:38.978Z,87.37
2022-10-13T07:01:07.203Z,87.31
2022-10-13T07:03:34.094Z,87.43
2022-10-13T07:06:05.087Z,87.22
2022-10-13T07:08:32.773Z,87.03
2022-10-13T07:10:59.606Z,86.68
2022-10-13T07:13:26.464Z,86.33
2022-10-13T07:15:53.411Z,85.94
2022-10-13T07:18:20.260Z,86.47
2022-10-13T07:20:46.960Z,85.78
2022-10-13T07:23:14.109Z,85.83
2022-10-13T07:25:40.911Z,86.69
2022-10-13T07:28:08.153Z,86.43
2022-10-13T07:30:34.857Z,85.25
2022-10-13T07:33:03.225Z,86.44
2022-10-13T07:35:31.032Z,84.88
2022-10-13T07:37:58.337Z,85.41
2022-10-13T07:40:25.151Z,86.18
2022-10-13T07:42:52.124Z,85.57
2022-10-13T07:45:18.865Z,85.81
2022-10-13T07:47:45.671Z,85.34
2022-10-13T07:50:12.505Z,85.22
2022-10-13T07:52:39.422Z,85.56
2022-10-13T07:55:06.858Z,85.78
2022-10-13T07:57:33.856Z,85.96
2022-10-13T08:00:01.110Z,85.10
2022-10-13T08:02:28.015Z,84.41
2022-10-13T08:04:54.830Z,83.36
2022-10-13T08:07:22.824Z,82.73
2022-10-13T08:09:49.854Z,81.66
2022-10-13T08:12:17.100Z,81.63
2022-10-13T08:14:44.112Z,82.32
2022-10-13T08:17:12.971Z,82.48
2022-10-13T08:19:39.803Z,82.50
2022-10-13T08:22:09.584Z,82.33
2022-10-13T08:24:36.975Z,83.22
2022-10-13T08:27:04.079Z,83.24
2022-10-13T08:29:31.004Z,83.49
2022-10-13T08:31:57.790Z,83.77
2022-10-13T08:34:25.066Z,83.97
2022-10-13T08:36:54.471Z,84.47
2022-10-13T08:39:24.283Z,84.11
2022-10-13T08:41:52.007Z,84.34
2022-10-13T08:47:36.539Z,83.54
2022-10-13T08:50:11.805Z,83.42
2022-10-13T08:53:00.493Z,83.00
2022-10-13T08:55:34.707Z,82.42
2022-10-13T08:58:03.256Z,82.27
2022-10-13T09:00:30.767Z,82.98
2022-10-13T09:03:30.465Z,83.30
2022-10-13T09:06:17.418Z,84.15
2022-10-13T09:08:51.029Z,84.98
2022-10-13T09:11:17.844Z,84.20
2022-10-13T09:13:44.604Z,84.55
2022-10-13T09:16:11.440Z,83.96
2022-10-13T09:18:38.611Z,84.11
2022-10-13T09:21:22.211Z,83.27
2022-10-13T09:23:50.832Z,83.41
2022-10-13T09:26:23.559Z,83.93
2022-10-13T09:28:51.383Z,82.48
2022-10-13T09:31:28.950Z,83.03
2022-10-13T09:34:01.199Z,82.27
2022-10-13T09:36:28.598Z,81.62
2022-10-13T09:39:06.505Z,81.18
2022-10-13T09:41:34.500Z,81.03
2022-10-13T09:44:10.120Z,81.06
2022-10-13T09:46:38.787Z,80.43
2022-10-13T09:49:21.554Z,79.71
2022-10-13T09:51:48.786Z,80.50
2022-10-13T09:54:24.425Z,80.98
2022-10-13T09:57:04.339Z,80.46
2022-10-13T09:59:37.073Z,80.30
2022-10-13T10:02:21.359Z,79.98
2022-10-13T10:04:51.864Z,79.76
2022-10-13T10:07:22.127Z,79.67
2022-10-13T10:09:57.001Z,79.81
2022-10-13T10:12:28.014Z,78.38
2022-10-13T10:14:54.959Z,78.88
2022-10-13T10:17:37.877Z,78.16
2022-10-13T10:20:29.246Z,80.09
2022-10-13T10:23:09.449Z,80.07
2022-10-13T10:25:52.458Z,78.94
2022-10-13T10:28:19.396Z,79.54
2022-10-13T10:30:57.996Z,79.32
2022-10-13T10:33:48.205Z,79.78
2022-10-13T10:36:35.057Z,80.06
2022-10-13T10:39:28.046Z,80.10
2022-10-13T10:42:04.381Z,79.19
2022-10-13T10:44:33.757Z,79.45
2022-10-13T10:47:11.522Z,80.07
2022-10-13T10:49:39.577Z,79.42
2022-10-13T10:52:09.652Z,79.70
2022-10-13T10:54:57.257Z,80.26
2022-10-13T10:57:57.914Z,80.87
2022-10-13T11:00:25.010Z,80.18
2022-10-13T11:03:03.479Z,80.47
2022-10-13T11:06:04.309Z,80.15
2022-10-13T11:08:37.736Z,79.46
2022-10-13T11:11:26.775Z,79.11
2022-10-13T11:14:00.730Z,80.09
2022-10-13T11:16:47.403Z,79.31
2022-10-13T11:19:32.695Z,79.18
2022-10-13T11:21:59.459Z,79.77
2022-10-13T11:24:41.207Z,79.37
2022-10-13T11:27:16.184Z,79.00
2022-10-13T11:29:46.685Z,79.12
2022-10-13T11:32:26.130Z,78.40
2022-10-13T11:34:59.484Z,77.95
2022-10-13T11:37:55.846Z,77.47
2022-10-13T11:40:57.200Z,76.46
2022-10-13T11:43:48.261Z,76.47
2022-10-13T11:46:14.954Z,75.57
2022-10-13T11:48:44.773Z,75.08
2022-10-13T11:51:55.029Z,76.21
2022-10-13T11:54:47.666Z,75.95
2022-10-13T11:57:23.547Z,75.65
2022-10-13T11:59:55.415Z,75.78
2022-10-13T12:02:52.016Z,76.98
2022-10-13T12:05:24.340Z,74.84
2022-10-13T12:07:52.912Z,75.18
2022-10-13T12:10:32.771Z,75.28
2022-10-13T12:13:01.155Z,75.22
2022-10-13T12:15:31.731Z,74.30
2022-10-13T12:18:45.432Z,75.34
2022-10-13T12:21:21.185Z,75.00
2022-10-13T12:23:50.498Z,73.95
2022-10-13T12:26:23.000Z,72.04
2022-10-13T12:28:58.498Z,70.87
2022-10-13T12:31:28.189Z,66.25
2022-10-13T12:34:01.321Z,64.55
2022-10-13T12:36:31.139Z,60.69
2022-10-13T12:39:04.820Z,60.59
2022-10-13T12:41:34.899Z,58.36
2022-10-13T12:44:05.771Z,59.06
2022-10-13T12:46:41.527Z,54.72
2022-10-13T12:49:22.804Z,51.90
2022-10-13T12:51:55.691Z,53.49
2022-10-13T12:54:30.831Z,50.41
2022-10-13T12:57:04.308Z,50.68
2022-10-13T12:59:31.691Z,55.52
2022-10-13T13:02:01.521Z,55.69
2022-10-13T13:04:41.222Z,57.10
2022-10-13T13:07:27.738Z,57.52
2022-10-13T13:10:08.311Z,59.32
2022-10-13T13:12:36.854Z,60.78
2022-10-13T13:15:21.556Z,63.02
2022-10-13T13:18:04.817Z,62.80
2022-10-13T13:20:34.034Z,63.59
2022-10-13T13:23:00.797Z,63.48
2022-10-13T13:25:27.666Z,64.54
2022-10-13T13:27:54.517Z,63.68
2022-10-13T13:30:23.499Z,61.86
2022-10-13T13:32:51.034Z,57.91
2022-10-13T13:35:18.009Z,57.08
2022-10-13T13:37:49.948Z,57.30
2022-10-13T13:40:19.945Z,54.69
2022-10-13T13:42:46.781Z,53.18
2022-10-13T13:45:14.783Z,53.58
2022-10-13T13:47:41.634Z,53.18
2022-10-13T13:50:36.852Z,51.43
2022-10-13T13:53:04.695Z,52.27
2022-10-13T13:55:31.551Z,51.42
2022-10-13T13:57:58.569Z,50.96
2022-10-13T14:00:25.330Z,51.18
2022-10-13T14:02:56.079Z,49.94
2022-10-13T14:05:23.680Z,48.59
2022-10-13T14:07:53.479Z,47.78
2022-10-13T14:10:20.288Z,47.64
2022-10-13T14:12:47.315Z,46.64
2022-10-13T14:15:14.087Z,45.67
2022-10-13T14:17:40.792Z,45.67
2022-10-13T14:20:07.910Z,45.36
2022-10-13T14:22:38.970Z,44.78
2022-10-13T14:25:07.166Z,44.69
2022-10-13T14:27:34.929Z,44.20
2022-10-13T14:30:02.559Z,46.23
2022-10-13T14:32:29.391Z,48.62
2022-10-13T14:34:56.218Z,52.82
2022-10-13T14:37:23.938Z,53.28
2022-10-13T14:39:52.601Z,55.97
2022-10-13T14:42:19.287Z,56.26
2022-10-13T14:44:46.105Z,57.58
2022-10-13T14:47:13.059Z,59.25
2022-10-13T14:49:39.954Z,60.14
2022-10-13T14:52:06.863Z,60.54
2022-10-13T14:54:33.698Z,60.36
2022-10-13T14:57:05.204Z,59.94
2022-10-13T14:59:32.267Z,60.75
2022-10-13T15:01:59.070Z,61.47
2022-10-13T15:04:25.908Z,60.63
2022-10-13T15:06:52.654Z,60.55
2022-10-13T15:09:21.079Z,60.01
2022-10-13T15:11:52.357Z,60.18
2022-10-13T15:14:19.128Z,59.20
2022-10-13T15:16:45.992Z,58.35
2022-10-13T15:19:12.812Z,58.77
2022-10-13T15:21:40.391Z,57.21
2022-10-13T15:24:08.195Z,57.79
2022-10-13T15:26:35.096Z,58.04
2022-10-13T15:29:01.834Z,57.73
2022-10-13T15:31:30.932Z,58.16
2022-10-13T15:33:57.741Z,58.24
2022-10-13T15:36:25.692Z,58.79
2022-10-13T15:38:52.493Z,59.22
2022-10-13T15:41:19.871Z,59.74
2022-10-13T15:43:47.647Z,60.21
2022-10-13T15:46:21.468Z,60.03
2022-10-13T15:48:49.320Z,59.85
2022-10-13T15:51:19.461Z,60.17
2022-10-13T15:53:47.718Z,60.81
2022-10-13T15:56:15.124Z,60.05
2022-10-13T15:58:42.101Z,61.06
2022-10-13T16:01:12.902Z,60.99
2022-10-13T16:03:40.214Z,62.52
2022-10-13T16:06:10.343Z,61.74
2022-10-13T16:08:37.933Z,62.50
2022-10-13T16:11:12.479Z,63.32
2022-10-13T16:13:40.114Z,62.76
2022-10-13T16:16:07.318Z,63.55
2022-10-13T16:18:37.116Z,62.53
2022-10-13T16:21:18.585Z,62.93
2022-10-13T16:23:47.210Z,63.71
2022-10-13T16:26:14.377Z,63.74
2022-10-13T16:28:41.640Z,61.99
2022-10-13T16:31:12.919Z,62.94
2022-10-13T16:33:43.145Z,63.48
2022-10-13T16:36:12.104Z,62.99
2022-10-13T16:38:42.108Z,63.14
2022-10-13T16:41:12.840Z,63.68
2022-10-13T16:43:39.641Z,63.71
2022-10-13T16:46:08.336Z,63.68
2022-10-13T16:48:35.230Z,64.60
2022-10-13T16:51:11.522Z,63.58
2022-10-13T16:53:38.818Z,65.02
2022-10-13T16:56:06.556Z,66.01
2022-10-13T16:58:33.659Z,64.58
2022-10-13T17:01:08.681Z,65.31
2022-10-13T17:03:39.368Z,65.53
2022-10-13T17:06:07.088Z,66.68
2022-10-13T17:08:33.962Z,66.98
2022-10-13T17:11:02.464Z,66.75
2022-10-13T17:13:31.141Z,66.34
2022-10-13T17:15:58.381Z,66.97
2022-10-13T17:18:27.096Z,67.64
2022-10-13T17:21:02.146Z,66.72
2022-10-13T17:23:29.622Z,67.74
2022-10-13T17:26:04.265Z,67.26
2022-10-13T17:28:31.136Z,67.81
2022-10-13T17:31:04.599Z,67.52
2022-10-13T17:33:35.552Z,68.43
2022-10-13T17:36:05.750Z,68.05
2022-10-13T17:38:32.870Z,68.70
2022-10-13T17:41:00.960Z,68.76
2022-10-13T17:43:28.131Z,69.04
2022-10-13T17:45:58.198Z,69.66
2022-10-13T17:48:33.125Z,69.30
2022-10-13T17:51:10.739Z,69.99
2022-10-13T17:53:38.310Z,70.26
2022-10-13T17:56:12.448Z,70.39
2022-10-13T17:58:40.115Z,70.83
2022-10-13T18:01:13.244Z,69.95
2022-10-13T18:03:45.126Z,70.07
2022-10-13T18:06:12.426Z,71.20
2022-10-13T18:08:39.139Z,70.57
2022-10-13T18:11:10.391Z,70.70
2022-10-13T18:13:37.434Z,70.10
2022-10-13T18:16:09.487Z,70.22
2022-10-13T18:18:36.616Z,71.03
2022-10-13T18:21:05.380Z,70.44
2022-10-13T18:23:33.406Z,70.66
2022-10-13T18:26:05.597Z,70.68
2022-10-13T18:28:35.037Z,70.84
2022-10-13T18:31:06.541Z,70.03
2022-10-13T18:33:33.454Z,69.81
2022-10-13T18:36:00.444Z,70.68
2022-10-13T18:38:27.563Z,71.12
2022-10-13T18:40:54.666Z,70.62
2022-10-13T18:43:21.435Z,70.81
2022-10-13T18:45:48.171Z,71.08
2022-10-13T18:48:14.874Z,71.02
2022-10-13T18:50:41.610Z,71.78
2022-10-13T18:53:08.410Z,70.88
2022-10-13T18:55:36.330Z,72.10
2022-10-13T18:58:03.148Z,72.85
2022-10-13T19:00:29.939Z,72.13
2022-10-13T19:02:56.909Z,72.69
2022-10-13T19:05:23.751Z,73.04
2022-10-13T19:07:56.944Z,73.18
2022-10-13T19:10:23.742Z,73.48
2022-10-13T19:12:50.512Z,73.38
2022-10-13T19:15:20.092Z,73.36
2022-10-13T19:17:49.828Z,73.63
2022-10-13T19:20:16.697Z,73.38
2022-10-13T19:22:43.483Z,73.27
2022-10-13T19:25:13.097Z,73.67
2022-10-13T19:27:39.836Z,74.09
2022-10-13T19:30:07.023Z,74.75
2022-10-13T19:32:33.851Z,74.40
2022-10-13T19:35:00.557Z,75.01
2022-10-13T19:37:27.321Z,74.02
2022-10-13T19:39:54.053Z,74.54
2022-10-13T19:42:20.898Z,74.87
2022-10-13T19:44:47.594Z,74.57
2022-10-13T19:47:14.360Z,73.91
2022-10-13T19:49:41.063Z,74.35
2022-10-13T19:52:07.918Z,74.49
2022-10-13T19:55:08.535Z,75.33
2022-10-13T19:57:35.604Z,74.83
2022-10-13T20:00:02.359Z,75.61
2022-10-13T20:02:39.348Z,75.06
2022-10-13T20:05:06.706Z,75.54
2022-10-13T20:07:33.626Z,75.30
2022-10-13T20:10:06.693Z,75.83
2022-10-13T20:12:33.566Z,75.65
2022-10-13T20:15:00.323Z,75.80
2022-10-13T20:17:27.205Z,75.06
2022-10-13T20:19:53.997Z,75.88
2022-10-13T20:22:20.814Z,76.10
2022-10-13T20:24:47.746Z,76.34
2022-10-13T20:27:14.697Z,76.49
2022-10-13T20:29:42.010Z,77.12
2022-10-13T20:32:09.010Z,77.04
2022-10-13T20:34:35.789Z,76.69
2022-10-13T20:37:02.744Z,76.76
2022-10-13T20:39:29.532Z,77.05
2022-10-13T20:41:56.488Z,76.74
2022-10-13T20:44:23.587Z,77.93
2022-10-13T20:46:50.502Z,77.98
2022-10-13T20:49:17.403Z,77.94
2022-10-13T20:51:44.344Z,77.37
2022-10-13T20:54:12.509Z,77.65
2022-10-13T20:56:40.111Z,78.62
2022-10-13T20:59:09.682Z,79.58
2022-10-13T21:01:37.082Z,79.83
2022-10-13T21:04:04.719Z,80.03
2022-10-13T21:06:31.703Z,80.44
2022-10-13T21:09:00.318Z,80.90
2022-10-13T21:11:27.130Z,81.15
2022-10-13T21:13:54.441Z,81.84
2022-10-13T21:16:27.560Z,81.10
2022-10-13T21:18:56.150Z,81.20
2022-10-13T21:21:28.186Z,81.22
2022-10-13T21:23:56.910Z,81.32
2022-10-13T21:26:24.747Z,80.96
2022-10-13T21:28:52.143Z,80.95
2022-10-13T21:31:21.038Z,81.14
2022-10-13T21:33:48.352Z,81.47
2022-10-13T21:36:17.783Z,81.36
2022-10-13T21:38:45.929Z,81.55
2022-10-13T21:41:14.366Z,81.99
2022-10-13T21:43:41.337Z,81.90
2022-10-13T21:46:13.476Z,82.16
2022-10-13T21:48:43.019Z,82.32
2022-10-13T21:51:14.956Z,83.08
2022-10-13T21:53:41.834Z,82.77
2022-10-13T21:56:09.985Z,82.93
2022-10-13T21:58:36.852Z,83.19
2022-10-13T22:01:05.131Z,83.36
2022-10-13T22:03:33.163Z,83.47
2022-10-13T22:06:07.629Z,83.42
2022-10-13T22:08:39.198Z,83.98
